Terminal Aerodrome Forecast
Issued by NWS Shreveport, LA

Home | Current Version | Previous Version | Text Only | Print | Product List | Glossary On
Versions: 1 2 3 4 5 6 7 8 9 10 11 12 13 14 15 16 17 18 19 20 21 22 23 24 25 26 27 28 29
342
FTUS44 KSHV 230752 AAG
TAFSHV
TAF AMD
KSHV 230752Z 2308/2406 21009KT P6SM BKN008 OVC040
      TEMPO 2309/2310 BKN008 OVC040
     FM231200 20010KT 6SM -SHRA BKN010 OVC020
     FM231500 21012KT P6SM VCSH BKN015 OVC025
     FM232100 22012KT P6SM VCTS BKN035CB=

USA.gov is the U.S. government's official web portal to all federal, state and local government web resources and services.